sensor_id;sensor_type;location;lat;lon;timestamp;temperature;humidity
21425;DHT22;10873;51.132;16.848;2024-03-22T00:00:55;26.50;50.70
21425;DHT22;10873;51.132;16.848;2024-03-22T00:03:40;26.50;50.70
21425;DHT22;10873;51.132;16.848;2024-03-22T00:06:07;26.40;50.70
21425;DHT22;10873;51.132;16.848;2024-03-22T00:08:33;26.40;50.70
21425;DHT22;10873;51.132;16.848;2024-03-22T00:10:59;26.40;50.70
21425;DHT22;10873;51.132;16.848;2024-03-22T00:13:25;26.30;50.60
21425;DHT22;10873;51.132;16.848;2024-03-22T00:15:51;26.30;50.60
21425;DHT22;10873;51.132;16.848;2024-03-22T00:18:17;26.30;50.70
21425;DHT22;10873;51.132;16.848;2024-03-22T00:20:43;26.30;50.60
21425;DHT22;10873;51.132;16.848;2024-03-22T00:23:10;26.30;50.60
21425;DHT22;10873;51.132;16.848;2024-03-22T00:25:36;26.30;50.60
21425;DHT22;10873;51.132;16.848;2024-03-22T00:28:02;26.30;50.70
21425;DHT22;10873;51.132;16.848;2024-03-22T00:30:28;26.30;50.70
21425;DHT22;10873;51.132;16.848;2024-03-22T00:32:54;26.30;50.70
21425;DHT22;10873;51.132;16.848;2024-03-22T00:35:20;26.30;51.40
21425;DHT22;10873;51.132;16.848;2024-03-22T00:37:46;26.20;50.60
21425;DHT22;10873;51.132;16.848;2024-03-22T00:40:13;26.20;50.70
21425;DHT22;10873;51.132;16.848;2024-03-22T00:42:39;26.20;50.60
21425;DHT22;10873;51.132;16.848;2024-03-22T00:45:05;26.20;50.60
21425;DHT22;10873;51.132;16.848;2024-03-22T00:47:32;26.20;50.60
21425;DHT22;10873;51.132;16.848;2024-03-22T00:49:58;26.20;50.50
21425;DHT22;10873;51.132;16.848;2024-03-22T00:52:24;26.20;50.50
21425;DHT22;10873;51.132;16.848;2024-03-22T00:54:50;26.20;50.50
21425;DHT22;10873;51.132;16.848;2024-03-22T00:57:17;26.10;50.40
21425;DHT22;10873;51.132;16.848;2024-03-22T00:59:43;26.10;50.40
21425;DHT22;10873;51.132;16.848;2024-03-22T01:02:09;26.10;50.40
21425;DHT22;10873;51.132;16.848;2024-03-22T01:04:35;26.10;50.40
21425;DHT22;10873;51.132;16.848;2024-03-22T01:07:01;26.10;50.40
21425;DHT22;10873;51.132;16.848;2024-03-22T01:09:27;26.10;50.50
21425;DHT22;10873;51.132;16.848;2024-03-22T01:11:54;26.10;50.40
21425;DHT22;10873;51.132;16.848;2024-03-22T01:14:21;26.10;50.40
21425;DHT22;10873;51.132;16.848;2024-03-22T01:16:47;26.00;50.30
21425;DHT22;10873;51.132;16.848;2024-03-22T01:19:13;26.00;50.30
21425;DHT22;10873;51.132;16.848;2024-03-22T01:21:39;26.00;50.30
21425;DHT22;10873;51.132;16.848;2024-03-22T01:24:05;26.00;50.30
21425;DHT22;10873;51.132;16.848;2024-03-22T01:26:31;26.00;50.40
21425;DHT22;10873;51.132;16.848;2024-03-22T01:28:57;26.00;50.20
21425;DHT22;10873;51.132;16.848;2024-03-22T01:31:24;26.00;50.30
21425;DHT22;10873;51.132;16.848;2024-03-22T01:33:49;26.00;50.20
21425;DHT22;10873;51.132;16.848;2024-03-22T01:36:16;26.00;50.20
21425;DHT22;10873;51.132;16.848;2024-03-22T01:38:41;26.00;50.20
21425;DHT22;10873;51.132;16.848;2024-03-22T01:41:08;26.00;50.20
21425;DHT22;10873;51.132;16.848;2024-03-22T01:43:33;26.00;50.20
21425;DHT22;10873;51.132;16.848;2024-03-22T01:46:00;26.00;50.20
21425;DHT22;10873;51.132;16.848;2024-03-22T01:48:26;26.00;50.20
21425;DHT22;10873;51.132;16.848;2024-03-22T01:50:53;26.00;50.20
21425;DHT22;10873;51.132;16.848;2024-03-22T01:53:19;26.00;50.10
21425;DHT22;10873;51.132;16.848;2024-03-22T01:55:46;26.00;50.10
21425;DHT22;10873;51.132;16.848;2024-03-22T01:58:12;26.00;50.10
21425;DHT22;10873;51.132;16.848;2024-03-22T02:00:38;26.00;50.20
21425;DHT22;10873;51.132;16.848;2024-03-22T02:03:04;26.00;50.20
21425;DHT22;10873;51.132;16.848;2024-03-22T02:05:31;26.00;50.20
21425;DHT22;10873;51.132;16.848;2024-03-22T02:07:57;25.90;50.10
21425;DHT22;10873;51.132;16.848;2024-03-22T02:10:23;25.90;50.10
21425;DHT22;10873;51.132;16.848;2024-03-22T02:12:49;25.90;50.10
21425;DHT22;10873;51.132;16.848;2024-03-22T02:15:15;25.90;50.20
21425;DHT22;10873;51.132;16.848;2024-03-22T02:17:41;25.90;50.20
21425;DHT22;10873;51.132;16.848;2024-03-22T02:20:08;25.90;50.20
21425;DHT22;10873;51.132;16.848;2024-03-22T02:22:36;25.90;50.20
21425;DHT22;10873;51.132;16.848;2024-03-22T02:25:04;25.90;50.10
21425;DHT22;10873;51.132;16.848;2024-03-22T02:27:29;25.90;50.20
21425;DHT22;10873;51.132;16.848;2024-03-22T02:29:56;25.90;50.10
21425;DHT22;10873;51.132;16.848;2024-03-22T02:32:22;25.90;50.10
21425;DHT22;10873;51.132;16.848;2024-03-22T02:34:48;25.90;50.20
21425;DHT22;10873;51.132;16.848;2024-03-22T02:37:14;25.90;50.20
21425;DHT22;10873;51.132;16.848;2024-03-22T02:39:40;25.90;50.20
21425;DHT22;10873;51.132;16.848;2024-03-22T02:42:07;25.90;50.20
21425;DHT22;10873;51.132;16.848;2024-03-22T02:44:33;25.90;50.20
21425;DHT22;10873;51.132;16.848;2024-03-22T02:46:59;25.80;50.10
21425;DHT22;10873;51.132;16.848;2024-03-22T02:49:25;25.80;50.20
21425;DHT22;10873;51.132;16.848;2024-03-22T02:51:51;25.80;50.20
21425;DHT22;10873;51.132;16.848;2024-03-22T02:54:17;25.80;50.20
21425;DHT22;10873;51.132;16.848;2024-03-22T02:56:43;25.80;50.20
21425;DHT22;10873;51.132;16.848;2024-03-22T02:59:10;25.80;50.20
21425;DHT22;10873;51.132;16.848;2024-03-22T03:01:36;25.80;50.20
21425;DHT22;10873;51.132;16.848;2024-03-22T03:04:02;25.90;50.20
21425;DHT22;10873;51.132;16.848;2024-03-22T03:06:28;25.80;50.20
21425;DHT22;10873;51.132;16.848;2024-03-22T03:08:54;25.80;50.30
21425;DHT22;10873;51.132;16.848;2024-03-22T03:11:20;25.80;50.30
21425;DHT22;10873;51.132;16.848;2024-03-22T03:13:46;25.80;50.30
21425;DHT22;10873;51.132;16.848;2024-03-22T03:16:13;25.80;50.30
21425;DHT22;10873;51.132;16.848;2024-03-22T03:18:39;25.80;50.40
21425;DHT22;10873;51.132;16.848;2024-03-22T03:21:06;25.80;50.40
21425;DHT22;10873;51.132;16.848;2024-03-22T03:23:34;25.80;50.40
21425;DHT22;10873;51.132;16.848;2024-03-22T03:25:59;25.80;50.40
21425;DHT22;10873;51.132;16.848;2024-03-22T03:28:26;25.80;50.40
21425;DHT22;10873;51.132;16.848;2024-03-22T03:30:52;25.80;50.40
21425;DHT22;10873;51.132;16.848;2024-03-22T03:33:19;25.80;50.40
21425;DHT22;10873;51.132;16.848;2024-03-22T03:35:45;25.80;51.00
21425;DHT22;10873;51.132;16.848;2024-03-22T03:38:12;25.90;50.40
21425;DHT22;10873;51.132;16.848;2024-03-22T03:40:38;25.80;50.40
21425;DHT22;10873;51.132;16.848;2024-03-22T03:43:04;25.80;50.40
21425;DHT22;10873;51.132;16.848;2024-03-22T03:45:30;25.80;50.40
21425;DHT22;10873;51.132;16.848;2024-03-22T03:47:56;25.80;50.40
21425;DHT22;10873;51.132;16.848;2024-03-22T03:50:22;25.80;50.50
21425;DHT22;10873;51.132;16.848;2024-03-22T03:52:48;25.80;50.50
21425;DHT22;10873;51.132;16.848;2024-03-22T03:55:14;25.80;50.50
21425;DHT22;10873;51.132;16.848;2024-03-22T03:57:41;25.80;50.50
21425;DHT22;10873;51.132;16.848;2024-03-22T04:00:08;25.80;50.50
21425;DHT22;10873;51.132;16.848;2024-03-22T04:02:34;25.80;50.50
21425;DHT22;10873;51.132;16.848;2024-03-22T04:05:00;25.80;50.50
21425;DHT22;10873;51.132;16.848;2024-03-22T04:07:26;25.90;50.60
21425;DHT22;10873;51.132;16.848;2024-03-22T04:09:52;25.90;50.60
21425;DHT22;10873;51.132;16.848;2024-03-22T04:12:18;25.90;50.50
21425;DHT22;10873;51.132;16.848;2024-03-22T04:14:44;25.90;50.50
21425;DHT22;10873;51.132;16.848;2024-03-22T04:17:10;25.90;50.60
21425;DHT22;10873;51.132;16.848;2024-03-22T04:19:37;25.90;50.60
21425;DHT22;10873;51.132;16.848;2024-03-22T04:22:03;25.80;50.50
21425;DHT22;10873;51.132;16.848;2024-03-22T04:24:30;25.80;50.50
21425;DHT22;10873;51.132;16.848;2024-03-22T04:26:56;25.80;50.50
21425;DHT22;10873;51.132;16.848;2024-03-22T04:29:22;25.80;50.50
21425;DHT22;10873;51.132;16.848;2024-03-22T04:31:48;25.80;50.60
21425;DHT22;10873;51.132;16.848;2024-03-22T04:34:14;25.80;50.60
21425;DHT22;10873;51.132;16.848;2024-03-22T04:36:40;25.80;50.60
21425;DHT22;10873;51.132;16.848;2024-03-22T04:39:06;25.80;50.60
21425;DHT22;10873;51.132;16.848;2024-03-22T04:41:33;25.90;50.60
21425;DHT22;10873;51.132;16.848;2024-03-22T04:43:59;25.90;50.70
21425;DHT22;10873;51.132;16.848;2024-03-22T04:46:25;25.90;50.60
21425;DHT22;10873;51.132;16.848;2024-03-22T04:48:51;25.90;50.60
21425;DHT22;10873;51.132;16.848;2024-03-22T04:51:17;25.90;50.60
21425;DHT22;10873;51.132;16.848;2024-03-22T04:53:43;26.00;50.60
21425;DHT22;10873;51.132;16.848;2024-03-22T04:56:10;25.90;50.50
21425;DHT22;10873;51.132;16.848;2024-03-22T04:58:36;26.00;50.50
21425;DHT22;10873;51.132;16.848;2024-03-22T05:01:03;26.00;50.60
21425;DHT22;10873;51.132;16.848;2024-03-22T05:03:29;26.00;50.50
21425;DHT22;10873;51.132;16.848;2024-03-22T05:05:56;26.00;50.50
21425;DHT22;10873;51.132;16.848;2024-03-22T05:08:23;26.00;50.50
21425;DHT22;10873;51.132;16.848;2024-03-22T05:10:49;26.00;50.50
21425;DHT22;10873;51.132;16.848;2024-03-22T05:13:15;26.00;50.50
21425;DHT22;10873;51.132;16.848;2024-03-22T05:15:41;26.00;50.50
21425;DHT22;10873;51.132;16.848;2024-03-22T05:18:07;26.00;50.50
21425;DHT22;10873;51.132;16.848;2024-03-22T05:20:33;26.00;51.20
21425;DHT22;10873;51.132;16.848;2024-03-22T05:22:59;26.00;50.50
21425;DHT22;10873;51.132;16.848;2024-03-22T05:25:25;26.00;50.50
21425;DHT22;10873;51.132;16.848;2024-03-22T05:27:51;26.00;50.50
21425;DHT22;10873;51.132;16.848;2024-03-22T05:30:18;26.00;50.60
21425;DHT22;10873;51.132;16.848;2024-03-22T05:32:44;26.00;50.60
21425;DHT22;10873;51.132;16.848;2024-03-22T05:35:10;25.90;50.50
21425;DHT22;10873;51.132;16.848;2024-03-22T05:37:36;25.90;50.60
21425;DHT22;10873;51.132;16.848;2024-03-22T05:40:03;25.90;50.60
21425;DHT22;10873;51.132;16.848;2024-03-22T05:42:30;25.90;50.60
21425;DHT22;10873;51.132;16.848;2024-03-22T05:44:57;25.90;50.60
21425;DHT22;10873;51.132;16.848;2024-03-22T05:47:23;25.90;50.70
21425;DHT22;10873;51.132;16.848;2024-03-22T05:49:50;25.90;50.60
21425;DHT22;10873;51.132;16.848;2024-03-22T05:52:16;26.00;50.60
21425;DHT22;10873;51.132;16.848;2024-03-22T05:54:42;26.00;50.60
21425;DHT22;10873;51.132;16.848;2024-03-22T05:57:08;26.00;50.60
21425;DHT22;10873;51.132;16.848;2024-03-22T05:59:35;26.00;50.70
21425;DHT22;10873;51.132;16.848;2024-03-22T06:02:01;26.00;50.70
21425;DHT22;10873;51.132;16.848;2024-03-22T06:04:27;26.00;50.70
21425;DHT22;10873;51.132;16.848;2024-03-22T06:06:54;26.00;50.70
21425;DHT22;10873;51.132;16.848;2024-03-22T06:09:20;26.00;50.80
21425;DHT22;10873;51.132;16.848;2024-03-22T06:12:00;26.00;50.90
21425;DHT22;10873;51.132;16.848;2024-03-22T06:14:28;25.90;50.80
21425;DHT22;10873;51.132;16.848;2024-03-22T06:16:54;25.90;50.90
21425;DHT22;10873;51.132;16.848;2024-03-22T06:19:20;25.90;50.90
21425;DHT22;10873;51.132;16.848;2024-03-22T06:21:46;25.90;51.00
21425;DHT22;10873;51.132;16.848;2024-03-22T06:24:12;25.90;51.70
21425;DHT22;10873;51.132;16.848;2024-03-22T06:26:38;25.90;51.10
21425;DHT22;10873;51.132;16.848;2024-03-22T06:29:05;25.90;51.10
21425;DHT22;10873;51.132;16.848;2024-03-22T06:31:31;25.90;51.10
21425;DHT22;10873;51.132;16.848;2024-03-22T06:33:57;25.90;51.10
21425;DHT22;10873;51.132;16.848;2024-03-22T06:36:28;25.90;51.10
21425;DHT22;10873;51.132;16.848;2024-03-22T06:38:54;25.90;51.10
21425;DHT22;10873;51.132;16.848;2024-03-22T06:41:21;25.90;51.10
21425;DHT22;10873;51.132;16.848;2024-03-22T06:43:47;25.90;51.10
21425;DHT22;10873;51.132;16.848;2024-03-22T06:46:12;25.80;51.10
21425;DHT22;10873;51.132;16.848;2024-03-22T06:48:39;25.80;51.00
21425;DHT22;10873;51.132;16.848;2024-03-22T06:51:04;25.80;51.10
21425;DHT22;10873;51.132;16.848;2024-03-22T06:53:31;25.80;51.10
21425;DHT22;10873;51.132;16.848;2024-03-22T06:55:56;25.80;51.00
21425;DHT22;10873;51.132;16.848;2024-03-22T06:58:23;25.80;51.00
21425;DHT22;10873;51.132;16.848;2024-03-22T07:00:49;25.80;51.00
21425;DHT22;10873;51.132;16.848;2024-03-22T07:03:15;25.80;51.00
21425;DHT22;10873;51.132;16.848;2024-03-22T07:05:42;25.80;51.00
21425;DHT22;10873;51.132;16.848;2024-03-22T07:08:08;25.80;51.10
21425;DHT22;10873;51.132;16.848;2024-03-22T07:10:35;25.80;51.00
21425;DHT22;10873;51.132;16.848;2024-03-22T07:13:05;25.80;51.00
21425;DHT22;10873;51.132;16.848;2024-03-22T07:15:32;25.80;51.00
21425;DHT22;10873;51.132;16.848;2024-03-22T07:17:58;25.80;51.00
21425;DHT22;10873;51.132;16.848;2024-03-22T07:20:24;25.80;51.00
21425;DHT22;10873;51.132;16.848;2024-03-22T07:22:50;25.80;51.00
21425;DHT22;10873;51.132;16.848;2024-03-22T07:25:16;25.80;51.00
21425;DHT22;10873;51.132;16.848;2024-03-22T07:27:42;25.80;51.00
21425;DHT22;10873;51.132;16.848;2024-03-22T07:30:09;25.80;51.00
21425;DHT22;10873;51.132;16.848;2024-03-22T07:32:36;25.90;51.00
21425;DHT22;10873;51.132;16.848;2024-03-22T07:35:03;25.90;50.90
21425;DHT22;10873;51.132;16.848;2024-03-22T07:37:30;25.90;50.90
21425;DHT22;10873;51.132;16.848;2024-03-22T07:39:55;25.90;50.90
21425;DHT22;10873;51.132;16.848;2024-03-22T07:42:22;25.90;50.90
21425;DHT22;10873;51.132;16.848;2024-03-22T07:44:48;25.90;50.90
21425;DHT22;10873;51.132;16.848;2024-03-22T07:47:14;25.90;50.90
21425;DHT22;10873;51.132;16.848;2024-03-22T07:49:41;25.90;50.80
21425;DHT22;10873;51.132;16.848;2024-03-22T07:52:07;25.90;50.90
21425;DHT22;10873;51.132;16.848;2024-03-22T07:54:33;25.90;50.80
21425;DHT22;10873;51.132;16.848;2024-03-22T07:56:59;25.90;50.90
21425;DHT22;10873;51.132;16.848;2024-03-22T07:59:25;25.90;50.80
21425;DHT22;10873;51.132;16.848;2024-03-22T08:01:51;25.90;50.80
21425;DHT22;10873;51.132;16.848;2024-03-22T08:04:17;25.80;50.70
21425;DHT22;10873;51.132;16.848;2024-03-22T08:06:44;25.90;50.80
21425;DHT22;10873;51.132;16.848;2024-03-22T08:09:10;25.90;50.80
21425;DHT22;10873;51.132;16.848;2024-03-22T08:11:36;25.90;50.80
21425;DHT22;10873;51.132;16.848;2024-03-22T08:14:02;25.90;50.80
21425;DHT22;10873;51.132;16.848;2024-03-22T08:16:29;25.80;50.80
21425;DHT22;10873;51.132;16.848;2024-03-22T08:18:56;25.80;50.80
21425;DHT22;10873;51.132;16.848;2024-03-22T08:21:22;25.80;50.80
21425;DHT22;10873;51.132;16.848;2024-03-22T08:23:49;25.90;50.80
21425;DHT22;10873;51.132;16.848;2024-03-22T08:26:15;25.90;50.80
21425;DHT22;10873;51.132;16.848;2024-03-22T08:28:41;25.90;50.80
21425;DHT22;10873;51.132;16.848;2024-03-22T08:31:07;25.90;50.70
21425;DHT22;10873;51.132;16.848;2024-03-22T08:33:33;25.90;50.70
21425;DHT22;10873;51.132;16.848;2024-03-22T08:35:59;25.90;50.70
21425;DHT22;10873;51.132;16.848;2024-03-22T08:38:26;25.90;50.70
21425;DHT22;10873;51.132;16.848;2024-03-22T08:40:53;25.90;50.70
21425;DHT22;10873;51.132;16.848;2024-03-22T08:43:19;25.90;50.70
21425;DHT22;10873;51.132;16.848;2024-03-22T08:45:48;25.90;50.70
21425;DHT22;10873;51.132;16.848;2024-03-22T08:48:13;25.90;50.60
21425;DHT22;10873;51.132;16.848;2024-03-22T08:50:42;26.00;50.70
21425;DHT22;10873;51.132;16.848;2024-03-22T08:53:08;25.90;50.60
21425;DHT22;10873;51.132;16.848;2024-03-22T08:55:34;25.90;50.60
21425;DHT22;10873;51.132;16.848;2024-03-22T08:58:01;26.00;50.70
21425;DHT22;10873;51.132;16.848;2024-03-22T09:00:27;25.90;50.70
21425;DHT22;10873;51.132;16.848;2024-03-22T09:02:53;25.90;50.60
21425;DHT22;10873;51.132;16.848;2024-03-22T09:05:19;26.00;50.60
21425;DHT22;10873;51.132;16.848;2024-03-22T09:07:45;26.00;50.60
21425;DHT22;10873;51.132;16.848;2024-03-22T09:10:11;25.90;50.50
21425;DHT22;10873;51.132;16.848;2024-03-22T09:12:37;26.00;50.60
21425;DHT22;10873;51.132;16.848;2024-03-22T09:15:05;26.00;50.60
21425;DHT22;10873;51.132;16.848;2024-03-22T09:17:31;25.90;50.50
21425;DHT22;10873;51.132;16.848;2024-03-22T09:19:57;25.90;50.40
21425;DHT22;10873;51.132;16.848;2024-03-22T09:22:23;25.90;50.50
21425;DHT22;10873;51.132;16.848;2024-03-22T09:24:49;25.90;50.40
21425;DHT22;10873;51.132;16.848;2024-03-22T09:27:15;25.90;50.50
21425;DHT22;10873;51.132;16.848;2024-03-22T09:29:42;25.90;50.50
21425;DHT22;10873;51.132;16.848;2024-03-22T09:32:10;25.90;50.50
21425;DHT22;10873;51.132;16.848;2024-03-22T09:34:36;25.90;50.50
21425;DHT22;10873;51.132;16.848;2024-03-22T09:37:02;25.90;50.50
21425;DHT22;10873;51.132;16.848;2024-03-22T09:39:29;25.90;50.40
21425;DHT22;10873;51.132;16.848;2024-03-22T09:41:57;25.90;50.30
21425;DHT22;10873;51.132;16.848;2024-03-22T09:44:23;26.00;50.40
21425;DHT22;10873;51.132;16.848;2024-03-22T09:46:51;26.00;50.30
21425;DHT22;10873;51.132;16.848;2024-03-22T09:49:18;26.00;50.30
21425;DHT22;10873;51.132;16.848;2024-03-22T09:51:44;26.00;50.30
21425;DHT22;10873;51.132;16.848;2024-03-22T09:54:11;26.00;50.20
21425;DHT22;10873;51.132;16.848;2024-03-22T09:56:38;25.90;50.20
21425;DHT22;10873;51.132;16.848;2024-03-22T09:59:05;26.00;50.20
21425;DHT22;10873;51.132;16.848;2024-03-22T10:01:32;26.00;50.20
21425;DHT22;10873;51.132;16.848;2024-03-22T10:04:00;26.00;50.10
21425;DHT22;10873;51.132;16.848;2024-03-22T10:06:26;26.00;50.10
21425;DHT22;10873;51.132;16.848;2024-03-22T10:08:52;26.00;50.10
21425;DHT22;10873;51.132;16.848;2024-03-22T10:11:19;26.00;50.10
21425;DHT22;10873;51.132;16.848;2024-03-22T10:13:45;26.00;50.10
21425;DHT22;10873;51.132;16.848;2024-03-22T10:16:12;26.00;50.00
21425;DHT22;10873;51.132;16.848;2024-03-22T10:18:38;26.00;50.00
21425;DHT22;10873;51.132;16.848;2024-03-22T10:21:05;25.90;50.00
21425;DHT22;10873;51.132;16.848;2024-03-22T10:23:32;25.90;50.30
21425;DHT22;10873;51.132;16.848;2024-03-22T10:25:58;26.00;50.10
21425;DHT22;10873;51.132;16.848;2024-03-22T10:28:25;26.00;50.00
21425;DHT22;10873;51.132;16.848;2024-03-22T10:30:51;26.00;50.00
21425;DHT22;10873;51.132;16.848;2024-03-22T10:33:21;25.90;49.90
21425;DHT22;10873;51.132;16.848;2024-03-22T10:35:52;26.00;50.00
21425;DHT22;10873;51.132;16.848;2024-03-22T10:38:19;26.00;50.00
21425;DHT22;10873;51.132;16.848;2024-03-22T10:40:46;26.00;50.00
21425;DHT22;10873;51.132;16.848;2024-03-22T10:43:12;25.90;50.00
21425;DHT22;10873;51.132;16.848;2024-03-22T10:45:40;25.90;50.00
21425;DHT22;10873;51.132;16.848;2024-03-22T10:48:09;25.90;50.10
21425;DHT22;10873;51.132;16.848;2024-03-22T10:50:38;25.90;50.10
21425;DHT22;10873;51.132;16.848;2024-03-22T10:53:07;26.00;50.10
21425;DHT22;10873;51.132;16.848;2024-03-22T10:55:36;26.00;50.00
21425;DHT22;10873;51.132;16.848;2024-03-22T10:58:04;26.00;50.00
21425;DHT22;10873;51.132;16.848;2024-03-22T11:00:31;26.00;50.00
21425;DHT22;10873;51.132;16.848;2024-03-22T11:02:57;26.00;50.00
21425;DHT22;10873;51.132;16.848;2024-03-22T11:05:25;26.00;49.90
21425;DHT22;10873;51.132;16.848;2024-03-22T11:07:59;26.00;49.90
21425;DHT22;10873;51.132;16.848;2024-03-22T11:10:28;26.00;49.90
21425;DHT22;10873;51.132;16.848;2024-03-22T11:12:54;26.00;49.90
21425;DHT22;10873;51.132;16.848;2024-03-22T11:15:22;26.10;49.90
21425;DHT22;10873;51.132;16.848;2024-03-22T11:17:48;26.10;49.90
21425;DHT22;10873;51.132;16.848;2024-03-22T11:20:15;26.00;49.90
21425;DHT22;10873;51.132;16.848;2024-03-22T11:22:41;26.10;49.90
21425;DHT22;10873;51.132;16.848;2024-03-22T11:25:07;26.10;49.90
21425;DHT22;10873;51.132;16.848;2024-03-22T11:27:33;26.10;50.00
21425;DHT22;10873;51.132;16.848;2024-03-22T11:29:59;26.10;49.90
21425;DHT22;10873;51.132;16.848;2024-03-22T11:32:26;26.10;49.90
21425;DHT22;10873;51.132;16.848;2024-03-22T11:34:52;26.10;49.90
21425;DHT22;10873;51.132;16.848;2024-03-22T11:37:19;26.10;49.90
21425;DHT22;10873;51.132;16.848;2024-03-22T11:39:45;26.10;49.90
21425;DHT22;10873;51.132;16.848;2024-03-22T11:42:11;26.10;49.90
21425;DHT22;10873;51.132;16.848;2024-03-22T11:44:39;26.10;49.90
21425;DHT22;10873;51.132;16.848;2024-03-22T11:47:06;26.00;49.90
21425;DHT22;10873;51.132;16.848;2024-03-22T11:49:34;26.10;49.90
21425;DHT22;10873;51.132;16.848;2024-03-22T11:52:00;26.10;49.80
21425;DHT22;10873;51.132;16.848;2024-03-22T11:54:26;26.00;49.80
21425;DHT22;10873;51.132;16.848;2024-03-22T11:56:55;26.00;49.80
21425;DHT22;10873;51.132;16.848;2024-03-22T11:59:22;26.00;49.80
21425;DHT22;10873;51.132;16.848;2024-03-22T12:01:48;26.00;49.80
21425;DHT22;10873;51.132;16.848;2024-03-22T12:04:15;26.00;49.80
21425;DHT22;10873;51.132;16.848;2024-03-22T12:06:42;26.00;49.80
21425;DHT22;10873;51.132;16.848;2024-03-22T12:09:08;26.00;49.80
21425;DHT22;10873;51.132;16.848;2024-03-22T12:11:37;26.00;49.80
21425;DHT22;10873;51.132;16.848;2024-03-22T12:14:03;26.00;49.80
21425;DHT22;10873;51.132;16.848;2024-03-22T12:16:29;26.00;49.80
21425;DHT22;10873;51.132;16.848;2024-03-22T12:18:55;26.00;49.70
21425;DHT22;10873;51.132;16.848;2024-03-22T12:21:21;26.00;49.80
21425;DHT22;10873;51.132;16.848;2024-03-22T12:23:47;26.00;49.70
21425;DHT22;10873;51.132;16.848;2024-03-22T12:26:13;26.00;49.70
21425;DHT22;10873;51.132;16.848;2024-03-22T12:28:39;26.00;49.80
21425;DHT22;10873;51.132;16.848;2024-03-22T12:31:07;26.00;49.70
21425;DHT22;10873;51.132;16.848;2024-03-22T12:33:34;26.00;49.70
21425;DHT22;10873;51.132;16.848;2024-03-22T12:36:00;26.00;49.70
21425;DHT22;10873;51.132;16.848;2024-03-22T12:38:26;26.00;49.70
21425;DHT22;10873;51.132;16.848;2024-03-22T12:40:52;26.00;49.70
21425;DHT22;10873;51.132;16.848;2024-03-22T12:43:18;26.00;49.70
21425;DHT22;10873;51.132;16.848;2024-03-22T12:45:44;26.00;49.70
21425;DHT22;10873;51.132;16.848;2024-03-22T12:48:10;26.00;49.60
21425;DHT22;10873;51.132;16.848;2024-03-22T12:50:37;26.00;49.60
21425;DHT22;10873;51.132;16.848;2024-03-22T12:53:04;26.00;49.60
21425;DHT22;10873;51.132;16.848;2024-03-22T12:55:30;26.00;49.60
21425;DHT22;10873;51.132;16.848;2024-03-22T12:57:57;26.00;49.60
21425;DHT22;10873;51.132;16.848;2024-03-22T13:00:24;26.00;49.60
21425;DHT22;10873;51.132;16.848;2024-03-22T13:02:51;26.00;49.60
21425;DHT22;10873;51.132;16.848;2024-03-22T13:05:18;26.00;49.50
21425;DHT22;10873;51.132;16.848;2024-03-22T13:07:44;26.00;49.50
21425;DHT22;10873;51.132;16.848;2024-03-22T13:10:10;26.00;49.50
21425;DHT22;10873;51.132;16.848;2024-03-22T13:12:36;26.00;49.50
21425;DHT22;10873;51.132;16.848;2024-03-22T13:15:04;25.90;49.40
21425;DHT22;10873;51.132;16.848;2024-03-22T13:17:30;26.00;49.50
21425;DHT22;10873;51.132;16.848;2024-03-22T13:19:56;25.90;49.40
21425;DHT22;10873;51.132;16.848;2024-03-22T13:22:22;25.90;49.40
21425;DHT22;10873;51.132;16.848;2024-03-22T13:24:49;25.90;49.30
21425;DHT22;10873;51.132;16.848;2024-03-22T13:27:16;25.90;49.30
21425;DHT22;10873;51.132;16.848;2024-03-22T13:29:43;26.00;49.40
21425;DHT22;10873;51.132;16.848;2024-03-22T13:32:10;25.90;49.30
21425;DHT22;10873;51.132;16.848;2024-03-22T13:34:37;25.90;49.30
21425;DHT22;10873;51.132;16.848;2024-03-22T13:37:03;25.90;49.30
21425;DHT22;10873;51.132;16.848;2024-03-22T13:39:29;25.90;49.30
21425;DHT22;10873;51.132;16.848;2024-03-22T13:41:55;25.90;49.20
21425;DHT22;10873;51.132;16.848;2024-03-22T13:44:22;25.90;49.20
21425;DHT22;10873;51.132;16.848;2024-03-22T13:46:49;25.90;49.30
21425;DHT22;10873;51.132;16.848;2024-03-22T13:49:17;25.90;49.20
21425;DHT22;10873;51.132;16.848;2024-03-22T13:51:44;25.90;49.20
21425;DHT22;10873;51.132;16.848;2024-03-22T13:54:11;25.90;49.20
21425;DHT22;10873;51.132;16.848;2024-03-22T13:56:37;25.90;49.20
21425;DHT22;10873;51.132;16.848;2024-03-22T13:59:04;25.90;49.20
21425;DHT22;10873;51.132;16.848;2024-03-22T14:01:31;25.90;49.20
21425;DHT22;10873;51.132;16.848;2024-03-22T14:03:57;25.90;49.20
21425;DHT22;10873;51.132;16.848;2024-03-22T14:06:24;25.90;49.10
21425;DHT22;10873;51.132;16.848;2024-03-22T14:08:50;25.90;49.10
21425;DHT22;10873;51.132;16.848;2024-03-22T14:11:16;25.90;49.80
21425;DHT22;10873;51.132;16.848;2024-03-22T14:13:43;25.90;49.10
21425;DHT22;10873;51.132;16.848;2024-03-22T14:16:09;25.90;49.20
21425;DHT22;10873;51.132;16.848;2024-03-22T14:18:35;25.90;49.20
21425;DHT22;10873;51.132;16.848;2024-03-22T14:21:01;25.90;49.20
21425;DHT22;10873;51.132;16.848;2024-03-22T14:23:28;25.90;49.10
21425;DHT22;10873;51.132;16.848;2024-03-22T14:25:55;25.90;49.10
21425;DHT22;10873;51.132;16.848;2024-03-22T14:28:21;25.90;49.10
21425;DHT22;10873;51.132;16.848;2024-03-22T14:30:47;25.90;49.00
21425;DHT22;10873;51.132;16.848;2024-03-22T14:33:13;26.00;49.10
21425;DHT22;10873;51.132;16.848;2024-03-22T14:35:39;26.00;49.00
21425;DHT22;10873;51.132;16.848;2024-03-22T14:38:05;26.00;49.00
21425;DHT22;10873;51.132;16.848;2024-03-22T14:40:32;26.00;49.00
21425;DHT22;10873;51.132;16.848;2024-03-22T14:43:03;26.00;49.00
21425;DHT22;10873;51.132;16.848;2024-03-22T14:45:29;26.00;49.00
21425;DHT22;10873;51.132;16.848;2024-03-22T14:47:55;26.00;49.00
21425;DHT22;10873;51.132;16.848;2024-03-22T14:50:21;26.00;49.00
21425;DHT22;10873;51.132;16.848;2024-03-22T14:52:50;26.00;49.00
21425;DHT22;10873;51.132;16.848;2024-03-22T14:55:16;26.00;49.00
21425;DHT22;10873;51.132;16.848;2024-03-22T14:57:42;26.00;49.00
21425;DHT22;10873;51.132;16.848;2024-03-22T15:00:09;26.00;49.00
21425;DHT22;10873;51.132;16.848;2024-03-22T15:02:36;26.00;49.00
21425;DHT22;10873;51.132;16.848;2024-03-22T15:05:02;26.00;49.00
21425;DHT22;10873;51.132;16.848;2024-03-22T15:07:30;26.00;49.00
21425;DHT22;10873;51.132;16.848;2024-03-22T15:09:56;26.00;49.00